Terminal Aerodrome Forecast
Issued by NWS

Home | Current Version | Previous Version | Text Only | Print | Product List | Glossary Off
Versions: 1 2 3 4 5 6 7 8 9 10 11 12 13 14 15 16 17

000
FTUS43 KGRB 211000 AAA
TAFAUW
TAF AMD
KAUW 211010Z 2110/2206 07003KT 1 1/2SM BR SCT015 OVC040
      TEMPO 2110/2113 1/4SM -SHRA FG VV002
     FM211500 15003KT 6SM BR BKN020 BKN035
     FM211700 VRB03KT 6SM -SHRA BR BKN018 BKN030
     FM212100 30008KT P6SM SCT018 BKN035
     FM220100 32010G18KT P6SM SCT035=

USA.gov is the U.S. government's official web portal to all federal, state and local government web resources and services.